Time;durP1;ratioP1;P1;durP2;ratioP2;P2;SDS_P1;SDS_P2;PMS_P1;PMS_P2;Temp;Humidity;BMP_temperature;BMP_pressure;BME280_temperature;BME280_humidity;BME280_pressure;Samples;Min_cycle;Max_cycle;Signal;HPM_P1;HPM_P2
2023/06/08 00:01:09;;;;;;;;;;;15.20;99.90;;;;;;5071258;28;20364;-83
2023/06/08 00:03:38;;;;;;;;;;;15.20;99.90;;;;;;5074026;28;20121;-83
2023/06/08 00:06:04;;;;;;;;;;;15.10;99.90;;;;;;5058014;28;20327;-82
2023/06/08 00:08:30;;;;;;;;;;;15.10;99.90;;;;;;5074282;28;19943;-84
2023/06/08 00:10:56;;;;;;;;;;;15.10;99.90;;;;;;5073988;28;19908;-84
2023/06/08 00:13:21;;;;;;;;;;;15.00;99.90;;;;;;5057542;28;19916;-84
2023/06/08 00:15:47;;;;;;;;;;;15.00;99.90;;;;;;5074011;28;20394;-84
2023/06/08 00:18:13;;;;;;;;;;;14.90;99.90;;;;;;5053070;28;19995;-84
2023/06/08 00:20:39;;;;;;;;;;;14.90;99.90;;;;;;5062785;28;19906;-83
2023/06/08 00:23:04;;;;;;;;;;;14.80;99.90;;;;;;5071598;28;19923;-83
2023/06/08 00:25:30;;;;;;;;;;;14.70;99.90;;;;;;5074564;28;19908;-83
2023/06/08 00:27:56;;;;;;;;;;;14.70;99.90;;;;;;5056298;28;20589;-83
2023/06/08 00:30:21;;;;;;;;;;;14.70;99.90;;;;;;5073943;28;19952;-83
2023/06/08 00:32:47;;;;;;;;;;;14.70;99.90;;;;;;5074064;28;19908;-83
2023/06/08 00:35:13;;;;;;;;;;;14.70;99.90;;;;;;5057208;28;19905;-83
2023/06/08 00:37:38;;;;;;;;;;;14.60;99.90;;;;;;5073857;28;19908;-83
2023/06/08 00:40:04;;;;;;;;;;;14.60;99.90;;;;;;5056982;28;20352;-84
2023/06/08 00:42:30;;;;;;;;;;;14.50;99.90;;;;;;5073494;28;20245;-83
2023/06/08 00:44:56;;;;;;;;;;;14.50;99.90;;;;;;5073220;28;19908;-83
2023/06/08 00:47:21;;;;;;;;;;;14.40;99.90;;;;;;5056781;28;20057;-83
2023/06/08 00:49:48;;;;;;;;;;;14.40;99.90;;;;;;5057272;28;20259;-83
2023/06/08 00:52:16;;;;;;;;;;;14.30;99.90;;;;;;5073667;28;19992;-84
2023/06/08 00:54:43;;;;;;;;;;;14.30;99.90;;;;;;5056838;28;19909;-83
2023/06/08 00:57:09;;;;;;;;;;;14.30;99.90;;;;;;5073582;28;20378;-83
2023/06/08 00:59:34;;;;;;;;;;;14.30;99.90;;;;;;5056467;28;19912;-83
2023/06/08 01:02:00;;;;;;;;;;;14.20;99.90;;;;;;5072840;28;19960;-83
2023/06/08 01:04:26;;;;;;;;;;;14.20;99.90;;;;;;5073371;28;19908;-83
2023/06/08 01:07:14;;;;;;;;;;;14.20;99.90;;;;;;5073365;28;19913;-83
2023/06/08 01:09:42;;;;;;;;;;;14.20;99.90;;;;;;5055729;28;19930;-83
2023/06/08 01:12:20;;;;;;;;;;;14.10;99.90;;;;;;5057297;28;20007;-83
2023/06/08 01:14:46;;;;;;;;;;;14.10;99.90;;;;;;5085222;28;19912;-83
2023/06/08 01:17:14;;;;;;;;;;;14.10;99.90;;;;;;5089782;28;20082;-83
2023/06/08 01:19:52;;;;;;;;;;;14.10;99.90;;;;;;5073317;28;19908;-83
2023/06/08 01:22:22;;;;;;;;;;;14.10;99.90;;;;;;5073335;28;19909;-83
2023/06/08 01:24:50;;;;;;;;;;;14.00;99.90;;;;;;5070213;28;19909;-83
2023/06/08 01:27:17;;;;;;;;;;;14.00;99.90;;;;;;5044831;28;19927;-83
2023/06/08 01:29:45;;;;;;;;;;;14.00;99.90;;;;;;5064182;28;19918;-82
2023/06/08 01:32:10;;;;;;;;;;;13.90;99.90;;;;;;5061739;28;19912;-83
2023/06/08 01:34:36;;;;;;;;;;;13.90;99.90;;;;;;5053616;28;19994;-83
2023/06/08 01:37:14;;;;;;;;;;;13.90;99.90;;;;;;5064693;28;20308;-83
2023/06/08 01:39:49;;;;;;;;;;;13.90;99.90;;;;;;5071454;28;19908;-83
2023/06/08 01:42:17;;;;;;;;;;;13.90;99.90;;;;;;5068028;28;20331;-83
2023/06/08 01:45:03;;;;;;;;;;;13.90;99.90;;;;;;5065947;28;20340;-83
2023/06/08 01:47:34;;;;;;;;;;;14.00;99.90;;;;;;5054205;28;19912;-83
2023/06/08 01:50:00;;;;;;;;;;;13.90;99.90;;;;;;5060788;28;20276;-83
2023/06/08 01:52:26;;;;;;;;;;;13.90;99.90;;;;;;5063493;28;20355;-83
2023/06/08 01:54:52;;;;;;;;;;;13.90;99.90;;;;;;5072759;28;19899;-83
2023/06/08 01:57:18;;;;;;;;;;;13.90;99.90;;;;;;5072590;28;19944;-83
2023/06/08 01:59:44;;;;;;;;;;;13.90;99.90;;;;;;5055501;28;19931;-82
2023/06/08 02:02:09;;;;;;;;;;;13.90;99.90;;;;;;5072375;28;19908;-83
2023/06/08 02:04:35;;;;;;;;;;;13.90;99.90;;;;;;5055954;28;19912;-83
2023/06/08 02:07:01;;;;;;;;;;;13.90;99.90;;;;;;5055374;28;20351;-83
2023/06/08 02:09:27;;;;;;;;;;;13.90;99.90;;;;;;5055813;28;19908;-81
2023/06/08 02:12:08;;;;;;;;;;;13.90;99.90;;;;;;5056672;28;20363;-82
2023/06/08 02:14:34;;;;;;;;;;;13.90;99.90;;;;;;5072783;28;20003;-83
2023/06/08 02:17:00;;;;;;;;;;;13.80;99.90;;;;;;5073046;28;19915;-83
2023/06/08 02:19:26;;;;;;;;;;;13.80;99.90;;;;;;5056115;28;19959;-83
2023/06/08 02:21:52;;;;;;;;;;;13.80;99.90;;;;;;5058200;28;19908;-83
2023/06/08 02:24:18;;;;;;;;;;;13.80;99.90;;;;;;5059409;28;20303;-83
2023/06/08 02:26:43;;;;;;;;;;;13.80;99.90;;;;;;5059427;28;19915;-83
2023/06/08 02:29:09;;;;;;;;;;;13.80;99.90;;;;;;5060060;28;19908;-83
2023/06/08 02:31:35;;;;;;;;;;;13.70;99.90;;;;;;5076310;28;19912;-84
2023/06/08 02:34:00;;;;;;;;;;;13.60;99.90;;;;;;5059087;28;20385;-84
2023/06/08 02:36:31;;;;;;;;;;;13.50;99.90;;;;;;5076662;28;19994;-83
2023/06/08 02:38:57;;;;;;;;;;;13.50;99.90;;;;;;5063497;28;20364;-83
2023/06/08 02:41:23;;;;;;;;;;;13.50;99.90;;;;;;5075997;28;19908;-83
2023/06/08 02:43:49;;;;;;;;;;;13.50;99.90;;;;;;5076276;28;20425;-83
2023/06/08 02:46:15;;;;;;;;;;;13.50;99.90;;;;;;5058908;28;19919;-83
2023/06/08 02:48:41;;;;;;;;;;;13.50;99.90;;;;;;5075754;28;19912;-83
2023/06/08 02:51:06;;;;;;;;;;;13.50;99.90;;;;;;5059253;28;19908;-83
2023/06/08 02:53:33;;;;;;;;;;;13.40;99.90;;;;;;5059523;28;19908;-83
2023/06/08 02:55:59;;;;;;;;;;;13.50;99.90;;;;;;5058708;28;19963;-83
2023/06/08 02:58:26;;;;;;;;;;;13.50;99.90;;;;;;5075564;28;19904;-83
2023/06/08 03:00:53;;;;;;;;;;;13.40;99.90;;;;;;5059189;28;19908;-83
2023/06/08 03:03:30;;;;;;;;;;;13.50;99.90;;;;;;5075644;28;20279;-83
2023/06/08 03:05:59;;;;;;;;;;;13.40;99.90;;;;;;5075126;28;19962;-83
2023/06/08 03:08:28;;;;;;;;;;;13.50;99.90;;;;;;5075515;28;19935;-83
2023/06/08 03:10:54;;;;;;;;;;;13.50;99.90;;;;;;5059071;28;19916;-83
2023/06/08 03:13:21;;;;;;;;;;;13.50;99.90;;;;;;5075385;28;19916;-83
2023/06/08 03:15:47;;;;;;;;;;;13.40;99.90;;;;;;5058563;28;19912;-83
2023/06/08 03:18:13;;;;;;;;;;;13.30;99.90;;;;;;5074581;28;19909;-84
2023/06/08 03:20:40;;;;;;;;;;;13.40;99.90;;;;;;5060869;28;19909;-86
2023/06/08 03:23:11;;;;;;;;;;;13.30;99.90;;;;;;5098976;28;19952;-86
2023/06/08 03:25:39;;;;;;;;;;;13.30;99.90;;;;;;5060463;28;20372;-86
2023/06/08 03:28:05;;;;;;;;;;;13.40;99.90;;;;;;5076162;28;19916;-86
2023/06/08 03:30:31;;;;;;;;;;;13.30;99.90;;;;;;5059632;28;19916;-86
2023/06/08 03:32:57;;;;;;;;;;;13.30;99.90;;;;;;5076054;28;19944;-87
2023/06/08 03:35:46;;;;;;;;;;;13.30;99.90;;;;;;5067583;28;19955;-85
2023/06/08 03:38:20;;;;;;;;;;;13.40;99.90;;;;;;5075984;28;19908;-86
2023/06/08 03:40:47;;;;;;;;;;;13.50;99.90;;;;;;5059257;28;19908;-86
2023/06/08 03:43:14;;;;;;;;;;;13.60;99.90;;;;;;5076037;28;19904;-86
2023/06/08 03:45:40;;;;;;;;;;;13.60;99.90;;;;;;5072040;28;19931;-86
2023/06/08 03:48:06;;;;;;;;;;;13.70;99.90;;;;;;5075385;28;19920;-86
2023/06/08 03:50:33;;;;;;;;;;;13.70;99.90;;;;;;5059546;28;20271;-86
2023/06/08 03:52:59;;;;;;;;;;;13.70;99.90;;;;;;5076004;28;20767;-86
2023/06/08 03:55:26;;;;;;;;;;;13.70;99.90;;;;;;5077744;28;19916;-87
2023/06/08 03:57:53;;;;;;;;;;;13.70;99.90;;;;;;5075836;28;19917;-86
2023/06/08 04:00:20;;;;;;;;;;;13.80;99.90;;;;;;5076036;28;20334;-86
2023/06/08 04:02:47;;;;;;;;;;;13.90;99.90;;;;;;5075321;28;19909;-87
2023/06/08 04:05:18;;;;;;;;;;;13.90;99.90;;;;;;5075811;28;19904;-86
2023/06/08 04:07:47;;;;;;;;;;;13.90;99.90;;;;;;5075929;28;19965;-86
2023/06/08 04:10:13;;;;;;;;;;;14.00;99.90;;;;;;5076826;28;19909;-86
2023/06/08 04:12:40;;;;;;;;;;;14.00;99.90;;;;;;5059435;28;19913;-87
2023/06/08 04:15:07;;;;;;;;;;;14.00;99.90;;;;;;5075980;28;20378;-85
2023/06/08 04:17:33;;;;;;;;;;;14.00;99.90;;;;;;5075990;28;19905;-85
2023/06/08 04:20:10;;;;;;;;;;;14.10;99.90;;;;;;5059446;28;19908;-86
2023/06/08 04:22:36;;;;;;;;;;;14.10;99.90;;;;;;5075483;28;19919;-86
2023/06/08 04:25:02;;;;;;;;;;;14.20;99.90;;;;;;5059442;28;19915;-86
2023/06/08 04:27:27;;;;;;;;;;;14.20;99.90;;;;;;5075727;28;19912;-86
2023/06/08 04:29:54;;;;;;;;;;;14.30;99.90;;;;;;5075978;28;19912;-86
2023/06/08 04:32:20;;;;;;;;;;;14.30;99.90;;;;;;5058889;28;19915;-86
2023/06/08 04:34:46;;;;;;;;;;;14.40;99.90;;;;;;5059123;28;20003;-86
2023/06/08 04:37:13;;;;;;;;;;;14.50;99.90;;;;;;5075052;28;19955;-86
2023/06/08 04:39:41;;;;;;;;;;;14.60;99.90;;;;;;5058653;28;20359;-87
2023/06/08 04:42:08;;;;;;;;;;;14.70;99.90;;;;;;5075032;28;19999;-86
2023/06/08 04:44:34;;;;;;;;;;;14.80;99.90;;;;;;5073759;28;19993;-86
2023/06/08 04:47:01;;;;;;;;;;;14.90;99.90;;;;;;5074995;28;19987;-86
2023/06/08 04:49:31;;;;;;;;;;;15.00;99.90;;;;;;5075342;28;20334;-86
2023/06/08 04:52:00;;;;;;;;;;;15.00;99.90;;;;;;5075199;28;19947;-86
2023/06/08 04:54:26;;;;;;;;;;;15.10;99.90;;;;;;5057695;28;19912;-87
2023/06/08 04:56:53;;;;;;;;;;;15.20;99.90;;;;;;5075128;28;19946;-86
2023/06/08 04:59:20;;;;;;;;;;;15.20;99.90;;;;;;5058973;28;19910;-87
2023/06/08 05:01:46;;;;;;;;;;;15.30;99.90;;;;;;5058151;28;19908;-86
2023/06/08 05:04:12;;;;;;;;;;;15.40;99.90;;;;;;5074732;28;19908;-87
2023/06/08 05:06:38;;;;;;;;;;;15.50;99.90;;;;;;5057715;28;20002;-87
2023/06/08 05:09:04;;;;;;;;;;;15.50;99.90;;;;;;5074777;28;19943;-86
2023/06/08 05:11:30;;;;;;;;;;;15.60;99.90;;;;;;5074854;28;20241;-86
2023/06/08 05:13:55;;;;;;;;;;;15.80;99.90;;;;;;5074799;28;20252;-86
2023/06/08 05:16:21;;;;;;;;;;;15.80;99.90;;;;;;5074376;28;19908;-86
2023/06/08 05:18:46;;;;;;;;;;;15.90;99.90;;;;;;5058076;28;19909;-87
2023/06/08 05:21:12;;;;;;;;;;;16.00;99.90;;;;;;5074276;28;19958;-87
2023/06/08 05:23:38;;;;;;;;;;;16.00;99.90;;;;;;5075615;28;20375;-87
2023/06/08 05:26:04;;;;;;;;;;;16.10;99.90;;;;;;5075052;28;19955;-86
2023/06/08 05:28:30;;;;;;;;;;;16.10;99.90;;;;;;5073964;28;20252;-86
2023/06/08 05:30:55;;;;;;;;;;;16.20;99.90;;;;;;5075242;28;20360;-87
2023/06/08 05:33:21;;;;;;;;;;;16.20;99.90;;;;;;5057997;28;19908;-86
2023/06/08 05:35:46;;;;;;;;;;;16.30;99.90;;;;;;5074705;28;19908;-86
2023/06/08 05:38:12;;;;;;;;;;;16.30;99.90;;;;;;5074832;28;19973;-86
2023/06/08 05:40:39;;;;;;;;;;;16.40;99.90;;;;;;5074923;28;19915;-86
2023/06/08 05:43:05;;;;;;;;;;;16.50;99.90;;;;;;5076226;28;19908;-86
2023/06/08 05:45:30;;;;;;;;;;;16.50;99.90;;;;;;5074607;28;20284;-87
2023/06/08 05:47:56;;;;;;;;;;;16.60;99.90;;;;;;5074610;28;20351;-88
2023/06/08 05:50:21;;;;;;;;;;;16.70;99.90;;;;;;5074614;28;20372;-88
2023/06/08 05:52:47;;;;;;;;;;;16.70;99.90;;;;;;5056353;28;19909;-86
2023/06/08 05:55:13;;;;;;;;;;;16.80;99.90;;;;;;5063051;28;20292;-86
2023/06/08 05:57:38;;;;;;;;;;;16.90;99.90;;;;;;5072952;28;20382;-87
2023/06/08 06:00:09;;;;;;;;;;;17.00;99.90;;;;;;5074605;28;19909;-86
2023/06/08 06:02:38;;;;;;;;;;;17.10;99.90;;;;;;5073163;28;19908;-86
2023/06/08 06:05:06;;;;;;;;;;;17.20;99.90;;;;;;5072682;28;19908;-86
2023/06/08 06:07:31;;;;;;;;;;;17.30;99.90;;;;;;5074083;28;19919;-87
2023/06/08 06:09:57;;;;;;;;;;;17.30;99.90;;;;;;5074951;28;19908;-87
2023/06/08 06:12:22;;;;;;;;;;;17.50;99.90;;;;;;5073382;28;19916;-87
2023/06/08 06:14:52;;;;;;;;;;;17.50;99.90;;;;;;5057633;28;19958;-86
2023/06/08 06:17:17;;;;;;;;;;;17.60;99.90;;;;;;5073848;28;20431;-87
2023/06/08 06:19:43;;;;;;;;;;;17.80;99.90;;;;;;5074583;28;19943;-86
2023/06/08 06:22:09;;;;;;;;;;;17.80;99.90;;;;;;5072565;28;19915;-86
2023/06/08 06:24:35;;;;;;;;;;;17.90;99.90;;;;;;5070809;28;19923;-87
2023/06/08 06:27:01;;;;;;;;;;;18.00;99.90;;;;;;5074816;28;19917;-87
2023/06/08 06:29:27;;;;;;;;;;;18.00;99.90;;;;;;5059161;28;19908;-87
2023/06/08 06:31:53;;;;;;;;;;;18.10;99.90;;;;;;5058697;28;20042;-87
2023/06/08 06:34:21;;;;;;;;;;;18.20;99.90;;;;;;5068062;28;19946;-87
2023/06/08 06:36:47;;;;;;;;;;;18.20;99.90;;;;;;5060069;28;20362;-87
2023/06/08 06:39:14;;;;;;;;;;;18.30;99.90;;;;;;5066862;28;19908;-86
2023/06/08 06:41:40;;;;;;;;;;;18.30;99.90;;;;;;5075000;28;19987;-87
2023/06/08 06:44:07;;;;;;;;;;;18.40;99.90;;;;;;5052107;28;19958;-87
2023/06/08 06:46:32;;;;;;;;;;;18.50;99.90;;;;;;5071728;28;19951;-88
2023/06/08 06:48:58;;;;;;;;;;;18.60;99.90;;;;;;5072815;28;19943;-88
2023/06/08 06:51:25;;;;;;;;;;;18.70;99.90;;;;;;5067246;28;19908;-87
2023/06/08 06:53:50;;;;;;;;;;;18.70;99.90;;;;;;5075282;28;20318;-87
2023/06/08 06:56:16;;;;;;;;;;;18.70;99.90;;;;;;5084873;28;20283;-88
2023/06/08 06:58:45;;;;;;;;;;;18.70;99.90;;;;;;5077240;28;19909;-88
2023/06/08 07:01:12;;;;;;;;;;;18.80;99.90;;;;;;5073279;28;19915;-88
2023/06/08 07:03:43;;;;;;;;;;;18.90;99.90;;;;;;5073234;28;20015;-87
2023/06/08 07:06:09;;;;;;;;;;;19.00;99.90;;;;;;5076482;28;19908;-87
2023/06/08 07:08:35;;;;;;;;;;;19.10;99.90;;;;;;5066504;28;20272;-88
2023/06/08 07:11:01;;;;;;;;;;;19.30;99.90;;;;;;5070982;28;19908;-88
2023/06/08 07:13:27;;;;;;;;;;;19.60;99.90;;;;;;5069574;28;20351;-87
2023/06/08 07:15:53;;;;;;;;;;;20.20;99.90;;;;;;5055251;28;19908;-88
2023/06/08 07:18:19;;;;;;;;;;;21.30;99.90;;;;;;5069307;28;19909;-88
2023/06/08 07:20:45;;;;;;;;;;;22.50;99.90;;;;;;5053405;28;20292;-89
2023/06/08 07:23:11;;;;;;;;;;;23.30;99.90;;;;;;5054615;28;19917;-88
2023/06/08 07:25:37;;;;;;;;;;;23.90;99.90;;;;;;5070626;28;19909;-88
2023/06/08 07:28:04;;;;;;;;;;;24.00;99.90;;;;;;5073760;28;20261;-87
2023/06/08 07:30:31;;;;;;;;;;;24.20;99.90;;;;;;5069155;28;20352;-88
2023/06/08 07:33:00;;;;;;;;;;;24.90;99.90;;;;;;5072281;28;19916;-87
2023/06/08 07:35:26;;;;;;;;;;;25.30;99.90;;;;;;5053528;28;19912;-88
2023/06/08 07:37:52;;;;;;;;;;;25.50;99.90;;;;;;5069302;28;20375;-87
2023/06/08 07:40:18;;;;;;;;;;;25.30;99.90;;;;;;5072257;28;19912;-86
2023/06/08 07:42:44;;;;;;;;;;;24.60;99.90;;;;;;5072527;28;19917;-87
2023/06/08 07:45:13;;;;;;;;;;;23.50;99.90;;;;;;5057933;28;19908;-88
2023/06/08 07:47:40;;;;;;;;;;;23.00;99.90;;;;;;5074107;28;20361;-87
2023/06/08 07:50:06;;;;;;;;;;;22.10;99.90;;;;;;5067956;28;20012;-87
2023/06/08 07:52:32;;;;;;;;;;;21.70;99.90;;;;;;5062875;28;19909;-86
2023/06/08 07:54:57;;;;;;;;;;;21.50;99.90;;;;;;5070877;28;19909;-87
2023/06/08 07:57:23;;;;;;;;;;;21.50;99.90;;;;;;5053215;28;20023;-88
2023/06/08 07:59:49;;;;;;;;;;;23.00;99.90;;;;;;5077188;28;19912;-86
2023/06/08 08:02:15;;;;;;;;;;;24.80;99.90;;;;;;5081101;28;19912;-87
2023/06/08 08:04:40;;;;;;;;;;;26.30;99.90;;;;;;5076131;28;19917;-88
2023/06/08 08:07:07;;;;;;;;;;;27.60;99.90;;;;;;5057893;28;19912;-87
2023/06/08 08:09:33;;;;;;;8.10;7.30;;;28.60;99.90;;;;;;5068369;28;19909;-87
2023/06/08 08:11:59;;;;;;;13.18;7.15;;;29.00;99.90;;;;;;5078226;28;20388;-87
2023/06/08 08:14:25;;;;;;;8.73;7.80;;;29.40;99.90;;;;;;5067800;28;20025;-87
2023/06/08 08:16:51;;;;;;;14.77;7.63;;;30.10;99.90;;;;;;5057766;28;20036;-87
2023/06/08 08:19:17;;;;;;;13.45;7.55;;;30.40;97.80;;;;;;5066715;28;20051;-87
2023/06/08 08:21:43;;;;;;;17.30;7.60;;;31.10;95.90;;;;;;5071439;28;20016;-87
2023/06/08 08:24:09;;;;;;;;;;;31.10;94.40;;;;;;5063686;28;20119;-87
2023/06/08 08:26:37;;;;;;;;;;;31.20;93.90;;;;;;5083025;28;19999;-87
2023/06/08 08:29:02;;;;;;;;;;;30.90;92.70;;;;;;5084780;28;20355;-87
2023/06/08 08:31:28;;;;;;;;;;;31.00;92.90;;;;;;5075796;28;19908;-87
2023/06/08 08:33:54;;;;;;;;;;;31.10;90.70;;;;;;5065105;28;19942;-87
2023/06/08 08:36:20;;;;;;;;;;;31.30;92.20;;;;;;5077539;28;19935;-86
2023/06/08 08:38:45;;;;;;;;;;;30.70;90.70;;;;;;5075948;28;19919;-87
2023/06/08 08:41:12;;;;;;;;;;;31.10;90.50;;;;;;5058878;28;19908;-87
2023/06/08 08:43:57;;;;;;;;;;;31.40;87.50;;;;;;5074941;28;19908;-86
2023/06/08 08:46:23;;;;;;;;;;;30.40;89.10;;;;;;5069997;28;19909;-87
2023/06/08 08:48:55;;;;;;;;;;;28.50;92.20;;;;;;5072193;28;20031;-87
2023/06/08 08:51:20;;;;;;;;;;;28.30;92.20;;;;;;5076704;28;19908;-87
2023/06/08 08:53:47;;;;;;;;;;;28.50;91.70;;;;;;5073976;28;19898;-88
2023/06/08 08:56:17;;;;;;;;;;;29.00;91.10;;;;;;5057534;28;19912;-87
2023/06/08 08:58:43;;;;;;;;;;;29.00;91.50;;;;;;5074810;28;19977;-87
2023/06/08 09:01:10;;;;;;;;;;;28.10;91.70;;;;;;5064024;28;19952;-88
2023/06/08 09:03:36;;;;;;;;;;;27.30;93.30;;;;;;5074397;28;19912;-87
2023/06/08 09:06:02;;;;;;;;;;;26.50;93.60;;;;;;5074472;28;20004;-87
2023/06/08 09:08:27;;;;;;;;;;;27.00;95.20;;;;;;5074102;28;19938;-87
2023/06/08 09:11:01;;;;;;;;;;;28.00;93.40;;;;;;5074564;28;19912;-87
2023/06/08 09:13:26;;;;;;;;;;;28.40;93.10;;;;;;5074358;28;19910;-87
2023/06/08 09:15:52;;;;;;;;;;;27.70;91.30;;;;;;5074034;28;19935;-87
2023/06/08 09:18:18;;;;;;;;;;;27.10;92.90;;;;;;5057594;28;19909;-88
2023/06/08 09:20:45;;;;;;;8.85;7.95;;;26.20;95.30;;;;;;5057280;28;19909;-87
2023/06/08 09:23:16;;;;;;;11.50;8.18;;;25.70;97.20;;;;;;5056582;28;20025;-87
2023/06/08 09:25:42;;;;;;;;;;;26.20;96.50;;;;;;5057630;28;20115;-88
2023/06/08 09:28:18;;;;;;;10.00;8.30;;;26.90;95.80;;;;;;5073426;28;19912;-89
2023/06/08 09:30:48;;;;;;;12.07;7.93;;;26.60;95.20;;;;;;5052178;28;20021;-88
2023/06/08 09:33:21;;;;;;;11.07;7.80;;;26.40;94.90;;;;;;5056457;28;20468;-88
2023/06/08 09:36:03;;;;;;;10.20;8.00;;;26.50;96.10;;;;;;5089968;28;20112;-89
2023/06/08 09:38:30;;;;;;;12.55;8.00;;;26.70;94.70;;;;;;5074155;28;20043;-88
2023/06/08 09:41:21;;;;;;;7.90;6.97;;;28.00;94.50;;;;;;5073845;28;20114;-89
2023/06/08 09:43:49;;;;;;;9.35;6.78;;;30.10;91.90;;;;;;5073442;28;20032;-88
2023/06/08 09:46:41;;;;;;;8.93;6.85;;;30.60;91.90;;;;;;5071616;28;20032;-88
2023/06/08 09:49:07;;;;;;;;;;;32.00;86.80;;;;;;5068169;28;20365;-87
2023/06/08 09:51:36;;;;;;;;;;;32.70;84.80;;;;;;5070684;28;19914;-87
2023/06/08 09:54:03;;;;;;;;;;;32.60;83.20;;;;;;5066293;28;19909;-87
2023/06/08 09:56:28;;;;;;;;;;;30.80;86.60;;;;;;5072811;28;19908;-87
2023/06/08 09:58:58;;;;;;;;;;;29.90;88.70;;;;;;5069750;28;19962;-87
2023/06/08 10:01:45;;;;;;;;;;;29.50;87.70;;;;;;5062996;28;19908;-87
2023/06/08 10:04:21;;;;;;;;;;;29.40;89.40;;;;;;5064659;28;20008;-87
2023/06/08 10:06:49;;;;;;;;;;;30.20;86.20;;;;;;5065763;28;19943;-87
2023/06/08 10:09:16;;;;;;;;;;;31.10;84.60;;;;;;5063065;28;20360;-87
2023/06/08 10:11:42;;;;;;;;;;;31.70;81.40;;;;;;5059297;28;19958;-87
2023/06/08 10:14:08;;;;;;;;;;;31.70;77.00;;;;;;5063377;28;20271;-87
2023/06/08 10:16:35;;;;;;;;;;;32.10;81.80;;;;;;5061109;28;19908;-87
2023/06/08 10:19:02;;;;;;;;;;;32.10;79.20;;;;;;5062542;28;19943;-86
2023/06/08 10:21:28;;;;;;;;;;;31.20;78.60;;;;;;5065645;28;20000;-87
2023/06/08 10:23:54;;;;;;;;;;;30.00;84.20;;;;;;5076938;28;19951;-87
2023/06/08 10:26:20;;;;;;;;;;;29.20;87.60;;;;;;5061740;28;19962;-87
2023/06/08 10:29:08;;;;;;;;;;;28.60;86.80;;;;;;5069323;28;19912;-87
2023/06/08 10:31:37;;;;;;;;;;;28.00;86.70;;;;;;5061531;28;19909;-86
2023/06/08 10:34:11;;;;;;;11.75;6.55;;;27.40;87.70;;;;;;5049872;28;20520;-87
2023/06/08 10:36:42;;;;;;;7.30;6.40;;;27.00;90.00;;;;;;5077887;28;20036;-86
2023/06/08 10:39:17;;;;;;;8.85;6.63;;;27.20;90.80;;;;;;5046554;28;20017;-87
2023/06/08 10:42:11;;;;;;;11.23;7.57;;;27.80;88.20;;;;;;5059213;28;20060;-87
2023/06/08 10:44:41;;;;;;;7.18;6.47;;;28.00;89.50;;;;;;5065732;28;20056;-87
2023/06/08 10:47:08;;;;;;;13.73;6.45;;;28.20;90.30;;;;;;5070175;28;20020;-87
2023/06/08 10:49:35;;;;;;;9.05;6.28;;;28.10;88.10;;;;;;5065117;28;20033;-86
2023/06/08 10:52:03;;;;;;;8.52;6.25;;;28.50;88.00;;;;;;5054033;28;20494;-87
2023/06/08 10:54:30;;;;;;;7.03;6.32;;;29.20;86.10;;;;;;5056885;28;20012;-87
2023/06/08 10:57:03;;;;;;;9.05;5.93;;;29.90;84.60;;;;;;5082811;28;20051;-88
2023/06/08 10:59:36;;;;;;;9.85;6.07;;;30.20;81.20;;;;;;5076449;28;20041;-87
2023/06/08 11:02:04;;;;;;;7.32;5.88;;;29.30;82.20;;;;;;5065944;28;20032;-87
2023/06/08 11:04:31;;;;;;;7.47;6.00;;;28.20;82.60;;;;;;5069931;28;20028;-87
2023/06/08 11:07:01;;;;;;;7.85;5.88;;;27.80;83.30;;;;;;5061491;28;20032;-87
2023/06/08 11:09:32;;;;;;;8.52;6.55;;;27.70;84.30;;;;;;5066820;28;20057;-87
2023/06/08 11:12:01;;;;;;;10.10;6.60;;;26.70;88.20;;;;;;5067356;28;20472;-88
2023/06/08 11:14:27;;;;;;;7.95;7.15;;;26.40;90.10;;;;;;5092051;28;20099;-87
2023/06/08 11:16:54;;;;;;;10.02;7.57;;;26.30;90.60;;;;;;5075856;28;20097;-86
2023/06/08 11:19:24;;;;;;;9.25;7.07;;;26.20;91.00;;;;;;5059178;28;20035;-88
2023/06/08 11:21:53;;;;;;;8.60;7.25;;;25.90;90.50;;;;;;5076101;28;20068;-87
2023/06/08 11:24:20;;;;;;;10.40;7.43;;;25.60;91.20;;;;;;5075814;28;20028;-87
2023/06/08 11:26:46;;;;;;;13.52;6.95;;;25.60;92.00;;;;;;5075706;28;20036;-88
2023/06/08 11:29:13;;;;;;;9.82;7.20;;;25.40;91.80;;;;;;5075643;28;20067;-87
2023/06/08 11:31:42;;;;;;;9.70;7.38;;;25.40;92.40;;;;;;5075768;28;20048;-87
2023/06/08 11:34:12;;;;;;;9.27;7.22;;;25.30;92.60;;;;;;5058861;28;20463;-88
2023/06/08 11:36:38;;;;;;;;;;;25.40;93.00;;;;;;5059655;28;20029;-87
2023/06/08 11:39:06;;;;;;;;;;;25.00;93.80;;;;;;5076140;28;19904;-87
2023/06/08 11:41:32;;;;;;;;;;;24.30;95.00;;;;;;5058942;28;19908;-87
2023/06/08 11:43:57;;;;;;;;;;;23.80;96.70;;;;;;5071295;28;19903;-87
2023/06/08 11:46:24;;;;;;;;;;;23.30;97.70;;;;;;5052522;28;19909;-88
2023/06/08 11:48:50;;;;;;;;;;;23.00;98.70;;;;;;5072433;28;19917;-87
2023/06/08 11:51:22;;;;;;;;;;;22.70;99.90;;;;;;5055784;28;19913;-88
2023/06/08 11:53:48;;;;;;;;;;;22.20;99.90;;;;;;5069270;28;19916;-86
2023/06/08 11:56:18;;;;;;;;;;;22.00;99.90;;;;;;5072754;28;19912;-88
2023/06/08 11:58:45;;;;;;;;;;;21.80;99.90;;;;;;5055788;28;19909;-87
2023/06/08 12:01:12;;;;;;;;;;;21.50;99.90;;;;;;5050279;28;19909;-86
2023/06/08 12:03:41;;;;;;;;;;;21.20;99.90;;;;;;5070210;28;19908;-87
2023/06/08 12:06:08;;;;;;;;;;;20.90;99.50;;;;;;5067761;28;19909;-86
2023/06/08 12:08:58;;;;;;;;;;;20.80;98.00;;;;;;5071921;28;20424;-87
2023/06/08 12:11:24;;;;;;;;;;;20.70;98.00;;;;;;5069387;28;19961;-86
2023/06/08 12:13:51;;;;;;;;;;;20.40;98.60;;;;;;5068320;28;20306;-87
2023/06/08 12:16:16;;;;;;;;;;;20.20;98.40;;;;;;5081224;28;19961;-87
2023/06/08 12:18:45;;;;;;;;;;;20.10;98.60;;;;;;5066550;28;19908;-86
2023/06/08 12:21:14;;;;;;;;;;;20.10;98.30;;;;;;5065650;28;19908;-85
2023/06/08 12:23:39;;;;;;;;;;;20.10;97.50;;;;;;5068588;28;19947;-87
2023/06/08 12:26:05;;;;;;;;;;;20.30;97.10;;;;;;5051648;28;19912;-86
2023/06/08 12:28:31;;;;;;;;;;;20.40;95.50;;;;;;5070368;28;19896;-86
2023/06/08 12:31:00;;;;;;;;;;;20.50;94.40;;;;;;5066411;28;19909;-85
2023/06/08 12:33:30;;;;;;;;;;;20.60;94.40;;;;;;5060796;28;19913;-86
2023/06/08 12:36:18;;;;;;;;;;;20.60;94.80;;;;;;5070008;28;19916;-86
2023/06/08 12:38:44;;;;;;;;;;;20.60;94.10;;;;;;5052585;28;20357;-87
2023/06/08 12:41:10;;;;;;;;;;;20.50;93.10;;;;;;5054266;28;19909;-86
2023/06/08 12:43:41;;;;;;;;;;;20.50;92.90;;;;;;5062875;28;19913;-86
2023/06/08 12:46:06;;;;;;;;;;;20.50;93.20;;;;;;5056021;28;19951;-86
2023/06/08 12:48:32;;;;;;;;;;;20.30;96.00;;;;;;5062911;28;20385;-86
2023/06/08 12:50:58;;;;;;;;;;;20.10;96.00;;;;;;5083638;28;19916;-87
2023/06/08 12:53:23;;;;;;;;;;;19.80;97.50;;;;;;5048510;28;19995;-86
2023/06/08 12:55:50;;;;;;;;;;;19.40;98.50;;;;;;5071021;28;20460;-86
2023/06/08 12:58:17;;;;;;;;;;;19.30;99.70;;;;;;5068985;28;20278;-85
2023/06/08 13:00:42;;;;;;;;;;;19.30;99.90;;;;;;5059776;28;19915;-87
2023/06/08 13:03:08;;;;;;;;;;;19.50;99.90;;;;;;5051550;28;19912;-86
2023/06/08 13:05:34;;;;;;;;;;;19.50;99.90;;;;;;5060519;28;20359;-87
2023/06/08 13:08:04;;;;;;;;;;;19.60;99.90;;;;;;5063209;28;19912;-86
2023/06/08 13:10:30;;;;;;;;;;;19.60;98.10;;;;;;5051429;28;20067;-86
2023/06/08 13:12:55;;;;;;;;;;;19.40;97.60;;;;;;5078852;28;19947;-86
2023/06/08 13:15:21;;;;;;;;;;;19.40;97.80;;;;;;5073061;28;19909;-86
2023/06/08 13:17:47;;;;;;;;;;;19.60;96.20;;;;;;5075447;28;19916;-87
2023/06/08 13:20:13;;;;;;;;;;;19.80;94.70;;;;;;5072516;28;19931;-86
2023/06/08 13:22:38;;;;;;;;;;;20.10;94.40;;;;;;5063879;28;19959;-87
2023/06/08 13:25:05;;;;;;;;;;;20.40;91.90;;;;;;5067460;28;19909;-87
2023/06/08 13:27:30;;;;;;;;;;;20.70;92.10;;;;;;5064833;28;20379;-86
2023/06/08 13:29:56;;;;;;;;;;;21.20;91.90;;;;;;5078318;28;19983;-87
2023/06/08 13:32:22;;;;;;;;;;;21.60;91.60;;;;;;5053854;28;19909;-86
2023/06/08 13:34:49;;;;;;;;;;;21.90;91.70;;;;;;5070166;28;19962;-87
2023/06/08 13:37:14;;;;;;;;;;;22.40;91.50;;;;;;5052129;28;19912;-86
2023/06/08 13:39:40;;;;;;;;;;;22.90;92.30;;;;;;5063820;28;19912;-86
2023/06/08 13:42:06;;;;;;;;;;;23.40;92.40;;;;;;5052537;28;19915;-86
2023/06/08 13:44:32;;;;;;;;;;;23.70;92.00;;;;;;5046248;28;19912;-87
2023/06/08 13:46:59;;;;;;;;;;;23.80;93.00;;;;;;5067268;28;20344;-87
2023/06/08 13:49:24;;;;;;;;;;;24.00;93.70;;;;;;5051029;28;19912;-87
2023/06/08 13:51:51;;;;;;;;;;;24.30;94.50;;;;;;5052281;28;19908;-87
2023/06/08 13:54:17;;;;;;;;;;;24.70;92.50;;;;;;5074690;28;19908;-87
2023/06/08 13:56:43;;;;;;;;;;;24.60;87.70;;;;;;5073046;28;19908;-87
2023/06/08 13:59:09;;;;;;;;;;;24.20;83.10;;;;;;5055832;28;20359;-87
2023/06/08 14:01:34;;;;;;;;;;;24.40;86.00;;;;;;5073889;28;19912;-87
2023/06/08 14:04:00;;;;;;;;;;;25.20;83.60;;;;;;5056185;28;19916;-87
2023/06/08 14:06:25;;;;;;;;;;;25.60;83.70;;;;;;5073876;28;20010;-87